sensor_id;sensor_type;location;lat;lon;timestamp;temperature;humidity
8953;DHT22;4511;50.890;8.054;2022-09-09T00:00:49;16.00;99.90
8953;DHT22;4511;50.890;8.054;2022-09-09T00:03:24;16.20;99.90
8953;DHT22;4511;50.890;8.054;2022-09-09T00:05:59;16.30;99.90
8953;DHT22;4511;50.890;8.054;2022-09-09T00:08:36;16.30;99.90
8953;DHT22;4511;50.890;8.054;2022-09-09T00:11:09;16.20;99.90
8953;DHT22;4511;50.890;8.054;2022-09-09T00:13:45;16.10;99.90
8953;DHT22;4511;50.890;8.054;2022-09-09T00:16:16;16.10;99.90
8953;DHT22;4511;50.890;8.054;2022-09-09T00:18:51;16.20;99.90
8953;DHT22;4511;50.890;8.054;2022-09-09T00:21:22;16.30;99.90
8953;DHT22;4511;50.890;8.054;2022-09-09T00:23:53;16.30;99.90
8953;DHT22;4511;50.890;8.054;2022-09-09T00:26:25;16.40;99.90
8953;DHT22;4511;50.890;8.054;2022-09-09T00:29:02;16.40;99.90
8953;DHT22;4511;50.890;8.054;2022-09-09T00:31:31;16.40;99.90
8953;DHT22;4511;50.890;8.054;2022-09-09T00:34:12;16.50;99.90
8953;DHT22;4511;50.890;8.054;2022-09-09T00:36:41;16.50;99.90
8953;DHT22;4511;50.890;8.054;2022-09-09T00:39:13;16.50;99.90
8953;DHT22;4511;50.890;8.054;2022-09-09T00:41:51;16.40;99.90
8953;DHT22;4511;50.890;8.054;2022-09-09T00:44:30;16.40;99.90
8953;DHT22;4511;50.890;8.054;2022-09-09T00:47:12;16.40;99.90
8953;DHT22;4511;50.890;8.054;2022-09-09T00:49:52;16.30;99.90
8953;DHT22;4511;50.890;8.054;2022-09-09T00:52:32;16.30;99.90
8953;DHT22;4511;50.890;8.054;2022-09-09T00:55:08;16.30;99.90
8953;DHT22;4511;50.890;8.054;2022-09-09T00:57:38;16.30;99.90
8953;DHT22;4511;50.890;8.054;2022-09-09T01:00:22;16.20;99.90
8953;DHT22;4511;50.890;8.054;2022-09-09T01:03:12;16.30;99.90
8953;DHT22;4511;50.890;8.054;2022-09-09T01:05:46;16.30;99.90
8953;DHT22;4511;50.890;8.054;2022-09-09T01:08:31;16.20;99.90
8953;DHT22;4511;50.890;8.054;2022-09-09T01:11:01;16.20;99.90
8953;DHT22;4511;50.890;8.054;2022-09-09T01:13:29;16.10;99.90
8953;DHT22;4511;50.890;8.054;2022-09-09T01:15:58;16.10;99.90
8953;DHT22;4511;50.890;8.054;2022-09-09T01:18:28;16.10;99.90
8953;DHT22;4511;50.890;8.054;2022-09-09T01:21:04;16.10;99.90
8953;DHT22;4511;50.890;8.054;2022-09-09T01:24:00;16.00;99.90
8953;DHT22;4511;50.890;8.054;2022-09-09T01:26:34;16.10;99.90
8953;DHT22;4511;50.890;8.054;2022-09-09T01:29:02;16.10;99.90
8953;DHT22;4511;50.890;8.054;2022-09-09T01:31:32;16.10;99.90
8953;DHT22;4511;50.890;8.054;2022-09-09T01:34:01;16.10;99.90
8953;DHT22;4511;50.890;8.054;2022-09-09T01:36:33;16.00;99.90
8953;DHT22;4511;50.890;8.054;2022-09-09T01:39:02;15.90;99.90
8953;DHT22;4511;50.890;8.054;2022-09-09T01:41:29;16.00;99.90
8953;DHT22;4511;50.890;8.054;2022-09-09T01:43:57;15.90;99.90
8953;DHT22;4511;50.890;8.054;2022-09-09T01:46:24;16.00;99.90
8953;DHT22;4511;50.890;8.054;2022-09-09T01:48:52;16.00;99.90
8953;DHT22;4511;50.890;8.054;2022-09-09T01:51:19;15.90;99.90
8953;DHT22;4511;50.890;8.054;2022-09-09T01:53:46;15.80;99.90
8953;DHT22;4511;50.890;8.054;2022-09-09T01:56:23;15.80;99.90
8953;DHT22;4511;50.890;8.054;2022-09-09T01:59:06;15.80;99.90
8953;DHT22;4511;50.890;8.054;2022-09-09T02:01:44;15.80;99.90
8953;DHT22;4511;50.890;8.054;2022-09-09T02:04:23;15.80;99.90
8953;DHT22;4511;50.890;8.054;2022-09-09T02:06:54;15.80;99.90
8953;DHT22;4511;50.890;8.054;2022-09-09T02:09:24;15.80;99.90
8953;DHT22;4511;50.890;8.054;2022-09-09T02:11:57;15.90;99.90
8953;DHT22;4511;50.890;8.054;2022-09-09T02:14:28;15.90;99.90
8953;DHT22;4511;50.890;8.054;2022-09-09T02:16:57;15.90;99.90
8953;DHT22;4511;50.890;8.054;2022-09-09T02:19:28;15.90;99.90
8953;DHT22;4511;50.890;8.054;2022-09-09T02:21:59;15.90;99.90
8953;DHT22;4511;50.890;8.054;2022-09-09T02:24:27;15.90;99.90
8953;DHT22;4511;50.890;8.054;2022-09-09T02:26:57;16.00;99.90
8953;DHT22;4511;50.890;8.054;2022-09-09T02:29:30;16.00;99.90
8953;DHT22;4511;50.890;8.054;2022-09-09T02:32:00;15.90;99.90
8953;DHT22;4511;50.890;8.054;2022-09-09T02:34:29;15.90;99.90
8953;DHT22;4511;50.890;8.054;2022-09-09T02:36:57;16.00;99.90
8953;DHT22;4511;50.890;8.054;2022-09-09T02:39:26;16.00;99.90
8953;DHT22;4511;50.890;8.054;2022-09-09T02:41:53;16.00;99.90
8953;DHT22;4511;50.890;8.054;2022-09-09T02:44:19;16.10;99.90
8953;DHT22;4511;50.890;8.054;2022-09-09T02:47:05;16.00;99.90
8953;DHT22;4511;50.890;8.054;2022-09-09T02:49:43;16.20;99.90
8953;DHT22;4511;50.890;8.054;2022-09-09T02:52:16;16.20;99.90
8953;DHT22;4511;50.890;8.054;2022-09-09T02:54:45;16.30;99.90
8953;DHT22;4511;50.890;8.054;2022-09-09T02:57:16;16.30;99.90
8953;DHT22;4511;50.890;8.054;2022-09-09T02:59:44;16.30;99.90
8953;DHT22;4511;50.890;8.054;2022-09-09T03:02:13;16.40;99.90
8953;DHT22;4511;50.890;8.054;2022-09-09T03:04:40;16.40;99.90
8953;DHT22;4511;50.890;8.054;2022-09-09T03:07:08;16.40;99.90
8953;DHT22;4511;50.890;8.054;2022-09-09T03:09:35;16.40;99.90
8953;DHT22;4511;50.890;8.054;2022-09-09T03:12:02;16.40;99.90
8953;DHT22;4511;50.890;8.054;2022-09-09T03:14:30;16.40;99.90
8953;DHT22;4511;50.890;8.054;2022-09-09T03:16:57;16.40;99.90
8953;DHT22;4511;50.890;8.054;2022-09-09T03:19:27;16.50;99.90
8953;DHT22;4511;50.890;8.054;2022-09-09T03:21:55;16.40;99.90
8953;DHT22;4511;50.890;8.054;2022-09-09T03:24:22;16.50;99.90
8953;DHT22;4511;50.890;8.054;2022-09-09T03:26:49;16.40;99.90
8953;DHT22;4511;50.890;8.054;2022-09-09T03:29:16;16.40;99.90
8953;DHT22;4511;50.890;8.054;2022-09-09T03:31:44;16.40;99.90
8953;DHT22;4511;50.890;8.054;2022-09-09T03:34:10;16.40;99.90
8953;DHT22;4511;50.890;8.054;2022-09-09T03:36:40;16.40;99.90
8953;DHT22;4511;50.890;8.054;2022-09-09T03:39:07;16.40;99.90
8953;DHT22;4511;50.890;8.054;2022-09-09T03:41:34;16.40;99.90
8953;DHT22;4511;50.890;8.054;2022-09-09T03:44:02;16.50;99.90
8953;DHT22;4511;50.890;8.054;2022-09-09T03:46:29;16.50;99.90
8953;DHT22;4511;50.890;8.054;2022-09-09T03:48:56;16.50;99.90
8953;DHT22;4511;50.890;8.054;2022-09-09T03:51:23;16.60;99.90
8953;DHT22;4511;50.890;8.054;2022-09-09T03:53:51;16.50;99.90
8953;DHT22;4511;50.890;8.054;2022-09-09T03:56:23;16.50;99.90
8953;DHT22;4511;50.890;8.054;2022-09-09T03:58:50;16.50;99.90
8953;DHT22;4511;50.890;8.054;2022-09-09T04:01:17;16.50;99.90
8953;DHT22;4511;50.890;8.054;2022-09-09T04:03:44;16.50;99.90
8953;DHT22;4511;50.890;8.054;2022-09-09T04:06:12;16.50;99.90
8953;DHT22;4511;50.890;8.054;2022-09-09T04:08:40;16.60;99.90
8953;DHT22;4511;50.890;8.054;2022-09-09T04:11:09;16.60;99.90
8953;DHT22;4511;50.890;8.054;2022-09-09T04:13:37;16.60;99.90
8953;DHT22;4511;50.890;8.054;2022-09-09T04:16:05;16.60;99.90
8953;DHT22;4511;50.890;8.054;2022-09-09T04:18:33;16.60;99.90
8953;DHT22;4511;50.890;8.054;2022-09-09T04:21:00;16.70;99.90
8953;DHT22;4511;50.890;8.054;2022-09-09T04:23:27;16.60;99.90
8953;DHT22;4511;50.890;8.054;2022-09-09T04:25:56;16.60;99.90
8953;DHT22;4511;50.890;8.054;2022-09-09T04:28:26;16.50;99.90
8953;DHT22;4511;50.890;8.054;2022-09-09T04:30:53;16.50;99.90
8953;DHT22;4511;50.890;8.054;2022-09-09T04:33:20;16.40;99.90
8953;DHT22;4511;50.890;8.054;2022-09-09T04:35:49;16.40;99.90
8953;DHT22;4511;50.890;8.054;2022-09-09T04:38:16;16.40;99.90
8953;DHT22;4511;50.890;8.054;2022-09-09T04:40:43;16.50;99.90
8953;DHT22;4511;50.890;8.054;2022-09-09T04:43:11;16.40;99.90
8953;DHT22;4511;50.890;8.054;2022-09-09T04:45:39;16.40;99.90
8953;DHT22;4511;50.890;8.054;2022-09-09T04:48:06;16.50;99.90
8953;DHT22;4511;50.890;8.054;2022-09-09T04:50:33;16.40;99.90
8953;DHT22;4511;50.890;8.054;2022-09-09T04:53:00;16.50;99.90
8953;DHT22;4511;50.890;8.054;2022-09-09T04:55:28;16.50;99.90
8953;DHT22;4511;50.890;8.054;2022-09-09T04:57:55;16.50;99.90
8953;DHT22;4511;50.890;8.054;2022-09-09T05:00:22;16.60;99.90
8953;DHT22;4511;50.890;8.054;2022-09-09T05:02:51;16.60;99.90
8953;DHT22;4511;50.890;8.054;2022-09-09T05:05:18;16.70;99.90
8953;DHT22;4511;50.890;8.054;2022-09-09T05:07:45;16.70;99.90
8953;DHT22;4511;50.890;8.054;2022-09-09T05:10:12;17.00;99.90
8953;DHT22;4511;50.890;8.054;2022-09-09T05:12:40;17.20;99.90
8953;DHT22;4511;50.890;8.054;2022-09-09T05:15:07;17.30;99.90
8953;DHT22;4511;50.890;8.054;2022-09-09T05:17:35;17.20;99.90
8953;DHT22;4511;50.890;8.054;2022-09-09T05:20:04;17.10;99.90
8953;DHT22;4511;50.890;8.054;2022-09-09T05:22:30;17.30;99.90
8953;DHT22;4511;50.890;8.054;2022-09-09T05:24:57;17.20;99.90
8953;DHT22;4511;50.890;8.054;2022-09-09T05:27:24;17.20;99.90
8953;DHT22;4511;50.890;8.054;2022-09-09T05:29:51;17.00;99.90
8953;DHT22;4511;50.890;8.054;2022-09-09T05:32:18;16.90;99.90
8953;DHT22;4511;50.890;8.054;2022-09-09T05:34:44;16.90;99.90
8953;DHT22;4511;50.890;8.054;2022-09-09T05:37:13;16.80;99.90
8953;DHT22;4511;50.890;8.054;2022-09-09T05:39:40;16.80;99.90
8953;DHT22;4511;50.890;8.054;2022-09-09T05:42:07;16.80;99.90
8953;DHT22;4511;50.890;8.054;2022-09-09T05:44:33;16.70;99.90
8953;DHT22;4511;50.890;8.054;2022-09-09T05:47:00;16.70;99.90
8953;DHT22;4511;50.890;8.054;2022-09-09T05:49:27;16.70;99.90
8953;DHT22;4511;50.890;8.054;2022-09-09T05:51:54;16.70;99.90
8953;DHT22;4511;50.890;8.054;2022-09-09T05:54:22;16.70;99.90
8953;DHT22;4511;50.890;8.054;2022-09-09T05:56:49;16.70;99.90
8953;DHT22;4511;50.890;8.054;2022-09-09T05:59:16;16.70;99.90
8953;DHT22;4511;50.890;8.054;2022-09-09T06:01:43;16.70;99.90
8953;DHT22;4511;50.890;8.054;2022-09-09T06:04:10;16.70;99.90
8953;DHT22;4511;50.890;8.054;2022-09-09T06:06:38;16.70;99.90
8953;DHT22;4511;50.890;8.054;2022-09-09T06:09:06;16.70;99.90
8953;DHT22;4511;50.890;8.054;2022-09-09T06:11:38;16.60;99.90
8953;DHT22;4511;50.890;8.054;2022-09-09T06:14:07;16.60;99.90
8953;DHT22;4511;50.890;8.054;2022-09-09T06:16:34;16.60;99.90
8953;DHT22;4511;50.890;8.054;2022-09-09T06:19:03;16.60;99.90
8953;DHT22;4511;50.890;8.054;2022-09-09T06:21:31;16.40;99.90
8953;DHT22;4511;50.890;8.054;2022-09-09T06:23:59;16.40;99.90
8953;DHT22;4511;50.890;8.054;2022-09-09T06:26:28;16.40;99.90
8953;DHT22;4511;50.890;8.054;2022-09-09T06:28:58;16.50;99.90
8953;DHT22;4511;50.890;8.054;2022-09-09T06:31:26;16.60;99.90
8953;DHT22;4511;50.890;8.054;2022-09-09T06:36:24;16.70;99.90
8953;DHT22;4511;50.890;8.054;2022-09-09T06:38:51;16.80;99.90
8953;DHT22;4511;50.890;8.054;2022-09-09T06:41:20;16.90;99.90
8953;DHT22;4511;50.890;8.054;2022-09-09T06:43:47;17.00;99.90
8953;DHT22;4511;50.890;8.054;2022-09-09T06:46:16;17.10;99.90
8953;DHT22;4511;50.890;8.054;2022-09-09T06:48:44;17.20;99.90
8953;DHT22;4511;50.890;8.054;2022-09-09T06:51:12;17.30;99.90
8953;DHT22;4511;50.890;8.054;2022-09-09T06:53:41;17.30;99.90
8953;DHT22;4511;50.890;8.054;2022-09-09T06:56:20;17.30;99.90
8953;DHT22;4511;50.890;8.054;2022-09-09T06:58:47;17.40;99.90
8953;DHT22;4511;50.890;8.054;2022-09-09T07:01:17;17.30;99.90
8953;DHT22;4511;50.890;8.054;2022-09-09T07:03:46;17.40;99.90
8953;DHT22;4511;50.890;8.054;2022-09-09T07:06:17;17.50;99.90
8953;DHT22;4511;50.890;8.054;2022-09-09T07:08:48;17.40;99.90
8953;DHT22;4511;50.890;8.054;2022-09-09T07:11:15;17.30;99.90
8953;DHT22;4511;50.890;8.054;2022-09-09T07:13:42;17.30;99.90
8953;DHT22;4511;50.890;8.054;2022-09-09T07:16:10;17.30;99.90
8953;DHT22;4511;50.890;8.054;2022-09-09T07:18:39;17.30;99.90
8953;DHT22;4511;50.890;8.054;2022-09-09T07:21:08;17.30;99.90
8953;DHT22;4511;50.890;8.054;2022-09-09T07:23:35;17.30;99.90
8953;DHT22;4511;50.890;8.054;2022-09-09T07:26:02;17.40;99.90
8953;DHT22;4511;50.890;8.054;2022-09-09T07:28:29;17.40;99.90
8953;DHT22;4511;50.890;8.054;2022-09-09T07:30:57;17.20;99.90
8953;DHT22;4511;50.890;8.054;2022-09-09T07:33:25;17.20;99.90
8953;DHT22;4511;50.890;8.054;2022-09-09T07:35:53;17.30;99.90
8953;DHT22;4511;50.890;8.054;2022-09-09T07:38:20;17.20;99.90
8953;DHT22;4511;50.890;8.054;2022-09-09T07:40:48;17.10;99.90
8953;DHT22;4511;50.890;8.054;2022-09-09T07:43:15;17.30;99.90
8953;DHT22;4511;50.890;8.054;2022-09-09T07:45:42;17.40;99.90
8953;DHT22;4511;50.890;8.054;2022-09-09T07:48:09;17.50;99.90
8953;DHT22;4511;50.890;8.054;2022-09-09T07:50:36;17.60;99.90
8953;DHT22;4511;50.890;8.054;2022-09-09T07:53:04;17.70;99.90
8953;DHT22;4511;50.890;8.054;2022-09-09T07:55:31;17.70;99.90
8953;DHT22;4511;50.890;8.054;2022-09-09T07:57:58;17.70;99.90
8953;DHT22;4511;50.890;8.054;2022-09-09T08:00:25;17.80;99.90
8953;DHT22;4511;50.890;8.054;2022-09-09T08:02:53;17.80;99.90
8953;DHT22;4511;50.890;8.054;2022-09-09T08:05:20;17.90;99.90
8953;DHT22;4511;50.890;8.054;2022-09-09T08:07:47;18.00;99.90
8953;DHT22;4511;50.890;8.054;2022-09-09T08:10:15;17.90;99.90
8953;DHT22;4511;50.890;8.054;2022-09-09T08:12:43;18.00;99.90
8953;DHT22;4511;50.890;8.054;2022-09-09T08:15:10;18.20;99.90
8953;DHT22;4511;50.890;8.054;2022-09-09T08:17:37;18.20;99.90
8953;DHT22;4511;50.890;8.054;2022-09-09T08:20:05;18.00;99.90
8953;DHT22;4511;50.890;8.054;2022-09-09T08:22:32;17.90;99.90
8953;DHT22;4511;50.890;8.054;2022-09-09T08:24:59;17.70;99.90
8953;DHT22;4511;50.890;8.054;2022-09-09T08:27:29;17.60;99.90
8953;DHT22;4511;50.890;8.054;2022-09-09T08:29:56;17.80;99.90
8953;DHT22;4511;50.890;8.054;2022-09-09T08:32:23;17.80;99.90
8953;DHT22;4511;50.890;8.054;2022-09-09T08:34:49;17.90;99.90
8953;DHT22;4511;50.890;8.054;2022-09-09T08:37:16;18.00;99.90
8953;DHT22;4511;50.890;8.054;2022-09-09T08:39:44;18.00;99.90
8953;DHT22;4511;50.890;8.054;2022-09-09T08:42:29;18.00;99.90
8953;DHT22;4511;50.890;8.054;2022-09-09T08:45:19;18.30;99.90
8953;DHT22;4511;50.890;8.054;2022-09-09T08:47:56;18.50;99.90
8953;DHT22;4511;50.890;8.054;2022-09-09T08:50:29;18.60;99.90
8953;DHT22;4511;50.890;8.054;2022-09-09T08:53:02;18.50;99.90
8953;DHT22;4511;50.890;8.054;2022-09-09T08:55:37;18.50;99.90
8953;DHT22;4511;50.890;8.054;2022-09-09T08:58:12;18.50;99.90
8953;DHT22;4511;50.890;8.054;2022-09-09T09:00:50;18.50;99.90
8953;DHT22;4511;50.890;8.054;2022-09-09T09:03:24;18.60;99.90
8953;DHT22;4511;50.890;8.054;2022-09-09T09:06:00;18.70;99.90
8953;DHT22;4511;50.890;8.054;2022-09-09T09:08:32;18.80;99.90
8953;DHT22;4511;50.890;8.054;2022-09-09T09:11:04;18.80;99.90
8953;DHT22;4511;50.890;8.054;2022-09-09T09:13:35;18.90;99.90
8953;DHT22;4511;50.890;8.054;2022-09-09T09:16:13;18.90;99.90
8953;DHT22;4511;50.890;8.054;2022-09-09T09:18:43;19.10;99.90
8953;DHT22;4511;50.890;8.054;2022-09-09T09:21:13;19.00;99.90
8953;DHT22;4511;50.890;8.054;2022-09-09T09:23:48;18.90;99.90
8953;DHT22;4511;50.890;8.054;2022-09-09T09:26:18;18.70;99.90
8953;DHT22;4511;50.890;8.054;2022-09-09T09:28:46;18.80;99.90
8953;DHT22;4511;50.890;8.054;2022-09-09T09:31:13;18.80;99.90
8953;DHT22;4511;50.890;8.054;2022-09-09T09:33:46;18.80;99.90
8953;DHT22;4511;50.890;8.054;2022-09-09T09:36:14;18.80;99.90
8953;DHT22;4511;50.890;8.054;2022-09-09T09:38:52;18.70;99.90
8953;DHT22;4511;50.890;8.054;2022-09-09T09:41:29;18.70;99.90
8953;DHT22;4511;50.890;8.054;2022-09-09T09:43:58;19.10;99.90
8953;DHT22;4511;50.890;8.054;2022-09-09T09:46:26;19.50;99.90
8953;DHT22;4511;50.890;8.054;2022-09-09T09:49:00;19.80;99.90
8953;DHT22;4511;50.890;8.054;2022-09-09T09:51:28;19.80;99.90
8953;DHT22;4511;50.890;8.054;2022-09-09T09:54:06;20.20;99.90
8953;DHT22;4511;50.890;8.054;2022-09-09T09:56:35;20.20;99.90
8953;DHT22;4511;50.890;8.054;2022-09-09T09:59:03;20.20;99.90
8953;DHT22;4511;50.890;8.054;2022-09-09T10:01:32;20.00;99.90
8953;DHT22;4511;50.890;8.054;2022-09-09T10:04:01;19.90;99.90
8953;DHT22;4511;50.890;8.054;2022-09-09T10:06:32;19.90;99.90
8953;DHT22;4511;50.890;8.054;2022-09-09T10:09:01;20.00;99.90
8953;DHT22;4511;50.890;8.054;2022-09-09T10:11:41;20.30;99.90
8953;DHT22;4511;50.890;8.054;2022-09-09T10:14:17;20.60;99.90
8953;DHT22;4511;50.890;8.054;2022-09-09T10:16:56;21.00;99.90
8953;DHT22;4511;50.890;8.054;2022-09-09T10:19:30;21.10;99.90
8953;DHT22;4511;50.890;8.054;2022-09-09T10:22:16;21.40;99.90
8953;DHT22;4511;50.890;8.054;2022-09-09T10:25:08;21.40;99.90
8953;DHT22;4511;50.890;8.054;2022-09-09T10:27:42;21.40;99.90
8953;DHT22;4511;50.890;8.054;2022-09-09T10:30:16;21.40;99.90
8953;DHT22;4511;50.890;8.054;2022-09-09T10:32:49;21.00;99.90
8953;DHT22;4511;50.890;8.054;2022-09-09T10:35:27;20.90;99.90
8953;DHT22;4511;50.890;8.054;2022-09-09T10:38:14;21.20;99.90
8953;DHT22;4511;50.890;8.054;2022-09-09T10:40:48;21.20;99.90
8953;DHT22;4511;50.890;8.054;2022-09-09T10:43:32;21.10;99.90
8953;DHT22;4511;50.890;8.054;2022-09-09T10:46:12;21.10;99.90
8953;DHT22;4511;50.890;8.054;2022-09-09T10:48:54;21.10;99.90
8953;DHT22;4511;50.890;8.054;2022-09-09T10:51:30;21.30;99.90
8953;DHT22;4511;50.890;8.054;2022-09-09T10:54:15;21.40;99.90
8953;DHT22;4511;50.890;8.054;2022-09-09T10:56:44;20.90;99.90
8953;DHT22;4511;50.890;8.054;2022-09-09T10:59:16;20.60;99.90
8953;DHT22;4511;50.890;8.054;2022-09-09T11:01:51;20.40;99.90
8953;DHT22;4511;50.890;8.054;2022-09-09T11:04:22;19.90;99.90
8953;DHT22;4511;50.890;8.054;2022-09-09T11:06:51;19.80;99.90
8953;DHT22;4511;50.890;8.054;2022-09-09T11:09:22;19.50;99.90
8953;DHT22;4511;50.890;8.054;2022-09-09T11:11:53;19.90;99.90
8953;DHT22;4511;50.890;8.054;2022-09-09T11:14:22;19.90;99.90
8953;DHT22;4511;50.890;8.054;2022-09-09T11:16:57;20.50;99.90
8953;DHT22;4511;50.890;8.054;2022-09-09T11:19:29;21.20;99.90
8953;DHT22;4511;50.890;8.054;2022-09-09T11:21:58;21.20;99.90
8953;DHT22;4511;50.890;8.054;2022-09-09T11:24:29;21.40;99.90
8953;DHT22;4511;50.890;8.054;2022-09-09T11:27:00;21.30;99.90
8953;DHT22;4511;50.890;8.054;2022-09-09T11:32:55;21.50;99.90
8953;DHT22;4511;50.890;8.054;2022-09-09T11:35:33;21.20;99.90
8953;DHT22;4511;50.890;8.054;2022-09-09T11:38:21;21.40;99.90
8953;DHT22;4511;50.890;8.054;2022-09-09T11:40:56;21.60;99.90
8953;DHT22;4511;50.890;8.054;2022-09-09T11:43:28;21.40;99.90
8953;DHT22;4511;50.890;8.054;2022-09-09T11:45:58;21.00;99.90
8953;DHT22;4511;50.890;8.054;2022-09-09T11:48:31;21.00;99.90
8953;DHT22;4511;50.890;8.054;2022-09-09T11:51:01;20.60;99.90
8953;DHT22;4511;50.890;8.054;2022-09-09T11:53:28;21.00;99.90
8953;DHT22;4511;50.890;8.054;2022-09-09T11:56:07;21.40;99.90
8953;DHT22;4511;50.890;8.054;2022-09-09T11:58:38;21.50;99.90
8953;DHT22;4511;50.890;8.054;2022-09-09T12:01:37;21.30;99.90
8953;DHT22;4511;50.890;8.054;2022-09-09T12:04:22;21.40;99.90
8953;DHT22;4511;50.890;8.054;2022-09-09T12:06:54;22.00;99.90
8953;DHT22;4511;50.890;8.054;2022-09-09T12:09:27;22.20;99.90
8953;DHT22;4511;50.890;8.054;2022-09-09T12:12:05;22.10;99.90
8953;DHT22;4511;50.890;8.054;2022-09-09T12:14:36;22.10;99.90
8953;DHT22;4511;50.890;8.054;2022-09-09T12:17:17;22.20;99.90
8953;DHT22;4511;50.890;8.054;2022-09-09T12:19:46;21.80;99.90
8953;DHT22;4511;50.890;8.054;2022-09-09T12:22:22;21.70;99.90
8953;DHT22;4511;50.890;8.054;2022-09-09T12:24:57;22.10;99.90
8953;DHT22;4511;50.890;8.054;2022-09-09T12:27:31;22.30;99.90
8953;DHT22;4511;50.890;8.054;2022-09-09T12:30:03;22.40;99.90
8953;DHT22;4511;50.890;8.054;2022-09-09T12:32:32;22.20;99.90
8953;DHT22;4511;50.890;8.054;2022-09-09T12:35:03;22.10;99.90
8953;DHT22;4511;50.890;8.054;2022-09-09T12:37:34;21.90;99.90
8953;DHT22;4511;50.890;8.054;2022-09-09T12:40:03;22.00;99.90
8953;DHT22;4511;50.890;8.054;2022-09-09T12:42:31;22.00;99.90
8953;DHT22;4511;50.890;8.054;2022-09-09T12:44:59;21.60;99.90
8953;DHT22;4511;50.890;8.054;2022-09-09T12:47:36;21.40;99.90
8953;DHT22;4511;50.890;8.054;2022-09-09T12:50:15;21.40;99.90
8953;DHT22;4511;50.890;8.054;2022-09-09T12:52:42;21.20;99.90
8953;DHT22;4511;50.890;8.054;2022-09-09T12:55:17;21.30;99.90
8953;DHT22;4511;50.890;8.054;2022-09-09T12:57:44;21.40;99.90
8953;DHT22;4511;50.890;8.054;2022-09-09T13:00:15;21.80;99.90
8953;DHT22;4511;50.890;8.054;2022-09-09T13:02:47;22.20;99.90
8953;DHT22;4511;50.890;8.054;2022-09-09T13:05:19;22.20;99.90
8953;DHT22;4511;50.890;8.054;2022-09-09T13:07:46;22.40;99.90
8953;DHT22;4511;50.890;8.054;2022-09-09T13:10:15;22.70;99.90
8953;DHT22;4511;50.890;8.054;2022-09-09T13:12:44;23.10;99.90
8953;DHT22;4511;50.890;8.054;2022-09-09T13:15:16;23.00;99.90
8953;DHT22;4511;50.890;8.054;2022-09-09T13:17:53;23.10;99.90
8953;DHT22;4511;50.890;8.054;2022-09-09T13:20:23;23.00;99.90
8953;DHT22;4511;50.890;8.054;2022-09-09T13:22:52;22.90;99.90
8953;DHT22;4511;50.890;8.054;2022-09-09T13:25:23;22.80;99.90
8953;DHT22;4511;50.890;8.054;2022-09-09T13:27:58;23.60;99.90
8953;DHT22;4511;50.890;8.054;2022-09-09T13:30:27;24.30;99.90
8953;DHT22;4511;50.890;8.054;2022-09-09T13:33:21;25.00;99.90
8953;DHT22;4511;50.890;8.054;2022-09-09T13:35:57;25.40;99.90
8953;DHT22;4511;50.890;8.054;2022-09-09T13:38:24;25.20;99.90
8953;DHT22;4511;50.890;8.054;2022-09-09T13:40:53;25.30;97.70
8953;DHT22;4511;50.890;8.054;2022-09-09T13:43:23;25.70;97.00
8953;DHT22;4511;50.890;8.054;2022-09-09T13:45:55;25.10;96.80
8953;DHT22;4511;50.890;8.054;2022-09-09T13:48:23;25.30;96.10
8953;DHT22;4511;50.890;8.054;2022-09-09T13:51:03;25.40;95.90
8953;DHT22;4511;50.890;8.054;2022-09-09T13:53:31;25.60;95.50
8953;DHT22;4511;50.890;8.054;2022-09-09T13:55:59;25.40;94.70
8953;DHT22;4511;50.890;8.054;2022-09-09T13:58:26;24.70;95.70
8953;DHT22;4511;50.890;8.054;2022-09-09T14:00:53;24.30;96.20
8953;DHT22;4511;50.890;8.054;2022-09-09T14:03:20;24.60;96.60
8953;DHT22;4511;50.890;8.054;2022-09-09T14:05:47;24.60;96.70
8953;DHT22;4511;50.890;8.054;2022-09-09T14:08:24;24.50;97.10
8953;DHT22;4511;50.890;8.054;2022-09-09T14:10:51;24.30;97.20
8953;DHT22;4511;50.890;8.054;2022-09-09T14:13:19;24.00;97.50
8953;DHT22;4511;50.890;8.054;2022-09-09T14:15:48;23.70;97.70
8953;DHT22;4511;50.890;8.054;2022-09-09T14:18:16;23.20;98.70
8953;DHT22;4511;50.890;8.054;2022-09-09T14:20:42;22.90;99.80
8953;DHT22;4511;50.890;8.054;2022-09-09T14:23:11;22.50;99.90
8953;DHT22;4511;50.890;8.054;2022-09-09T14:25:43;22.10;99.90
8953;DHT22;4511;50.890;8.054;2022-09-09T14:28:11;21.50;99.90
8953;DHT22;4511;50.890;8.054;2022-09-09T14:30:39;21.50;99.90
8953;DHT22;4511;50.890;8.054;2022-09-09T14:33:06;21.20;99.90
8953;DHT22;4511;50.890;8.054;2022-09-09T14:35:33;21.10;99.90
8953;DHT22;4511;50.890;8.054;2022-09-09T14:38:02;21.40;99.90
8953;DHT22;4511;50.890;8.054;2022-09-09T14:40:29;21.10;99.90
8953;DHT22;4511;50.890;8.054;2022-09-09T14:42:58;21.00;99.90
8953;DHT22;4511;50.890;8.054;2022-09-09T14:45:24;21.00;99.90
8953;DHT22;4511;50.890;8.054;2022-09-09T14:47:52;21.00;99.90
8953;DHT22;4511;50.890;8.054;2022-09-09T14:50:19;20.80;99.90
8953;DHT22;4511;50.890;8.054;2022-09-09T14:52:46;20.60;99.90
8953;DHT22;4511;50.890;8.054;2022-09-09T14:55:14;20.60;99.90
8953;DHT22;4511;50.890;8.054;2022-09-09T14:57:42;20.30;99.90
8953;DHT22;4511;50.890;8.054;2022-09-09T15:00:11;19.80;99.90
8953;DHT22;4511;50.890;8.054;2022-09-09T15:02:38;19.50;99.90
8953;DHT22;4511;50.890;8.054;2022-09-09T15:05:06;19.50;99.90
8953;DHT22;4511;50.890;8.054;2022-09-09T15:07:33;19.20;99.90
8953;DHT22;4511;50.890;8.054;2022-09-09T15:10:01;18.70;99.90
8953;DHT22;4511;50.890;8.054;2022-09-09T15:12:28;18.70;99.90
8953;DHT22;4511;50.890;8.054;2022-09-09T15:14:54;18.70;99.90
8953;DHT22;4511;50.890;8.054;2022-09-09T15:17:22;18.70;99.90
8953;DHT22;4511;50.890;8.054;2022-09-09T15:19:52;18.60;99.90
8953;DHT22;4511;50.890;8.054;2022-09-09T15:22:20;18.20;99.90
8953;DHT22;4511;50.890;8.054;2022-09-09T15:24:47;17.90;99.90
8953;DHT22;4511;50.890;8.054;2022-09-09T15:27:13;18.20;99.90
8953;DHT22;4511;50.890;8.054;2022-09-09T15:29:41;18.40;99.90
8953;DHT22;4511;50.890;8.054;2022-09-09T15:32:09;18.60;99.90
8953;DHT22;4511;50.890;8.054;2022-09-09T15:34:38;19.00;99.90
8953;DHT22;4511;50.890;8.054;2022-09-09T15:37:05;19.60;99.90
8953;DHT22;4511;50.890;8.054;2022-09-09T15:39:32;21.50;99.90
8953;DHT22;4511;50.890;8.054;2022-09-09T15:41:59;22.80;99.90
8953;DHT22;4511;50.890;8.054;2022-09-09T15:44:27;22.60;99.90
8953;DHT22;4511;50.890;8.054;2022-09-09T15:46:54;21.30;99.90
8953;DHT22;4511;50.890;8.054;2022-09-09T15:49:22;21.20;99.90
8953;DHT22;4511;50.890;8.054;2022-09-09T15:51:53;20.70;99.90
8953;DHT22;4511;50.890;8.054;2022-09-09T15:54:22;20.30;99.90
8953;DHT22;4511;50.890;8.054;2022-09-09T15:56:51;20.20;99.90
8953;DHT22;4511;50.890;8.054;2022-09-09T15:59:20;20.30;99.90
8953;DHT22;4511;50.890;8.054;2022-09-09T16:01:47;20.90;99.90
8953;DHT22;4511;50.890;8.054;2022-09-09T16:04:16;20.90;99.90
8953;DHT22;4511;50.890;8.054;2022-09-09T16:06:49;20.60;99.90
8953;DHT22;4511;50.890;8.054;2022-09-09T16:09:18;20.60;99.90
8953;DHT22;4511;50.890;8.054;2022-09-09T16:11:46;20.40;99.90
8953;DHT22;4511;50.890;8.054;2022-09-09T16:14:13;20.40;99.90
8953;DHT22;4511;50.890;8.054;2022-09-09T16:16:41;20.40;99.90
8953;DHT22;4511;50.890;8.054;2022-09-09T16:19:10;20.30;99.90
8953;DHT22;4511;50.890;8.054;2022-09-09T16:21:38;20.20;99.90
8953;DHT22;4511;50.890;8.054;2022-09-09T16:24:06;20.10;99.90
8953;DHT22;4511;50.890;8.054;2022-09-09T16:26:37;20.10;99.90
8953;DHT22;4511;50.890;8.054;2022-09-09T16:29:04;20.10;99.90